Big Bear Station Historical Data
Daily Summary for September 8, 2017 Units:  English    Metric   Both
« Previous Day
Next Day »
Daily Weekly Monthly Yearly Custom
  High: Low: Average:
Temperature: 74.5 °F 50.9 °F 61.6 °F
Dew Point: 50.2 °F 32.7 °F 44.6 °F
Humidity: 82 % 25 % 57 %
Wind Speed: 9.4 mph 0.0 mph 1.4 mph
Wind Gust: -999.0 mph - -
Wind:- - SW
Pressure: 30.24 in 30.18 in -
Precipitation: 0.00 in    
Historical Graphs
 
 
Tabular Data for September 8, 2017
Time Temperature Dew Point Pressure Wind Wind Speed Wind Gust Humidity Rainfall Rate (Hourly)
00:08 58.3 °F 44.9 °F 30.22 in Calm   -999.0 mph 61 % 0 in
00:23 57.7 °F 45.2 °F 30.22 in Calm   -999.0 mph 63 % 0 in
00:38 57.6 °F 45.5 °F 30.22 in Calm   -999.0 mph 64 % 0 in
00:53 57.4 °F 46.5 °F 30.21 in Calm   -999.0 mph 67 % 0 in
01:09 57.2 °F 46.3 °F 30.21 in Calm   -999.0 mph 67 % 0 in
01:24 56.8 °F 46.0 °F 30.20 in Calm   -999.0 mph 67 % 0 in
01:39 57.2 °F 47.1 °F 30.21 in Calm   -999.0 mph 69 % 0 in
01:54 56.8 °F 46.7 °F 30.21 in Calm   -999.0 mph 69 % 0 in
02:10 56.5 °F 46.1 °F 30.20 in Calm   -999.0 mph 68 % 0 in
02:25 56.7 °F 47.0 °F 30.20 in Calm   -999.0 mph 70 % 0 in
02:40 56.5 °F 47.2 °F 30.20 in Calm   -999.0 mph 71 % 0 in
02:55 56.7 °F 47.4 °F 30.20 in Calm   -999.0 mph 71 % 0 in
03:10 56.8 °F 46.7 °F 30.20 in Calm   -999.0 mph 69 % 0 in
03:26 57.7 °F 45.6 °F 30.20 in Calm   -999.0 mph 64 % 0 in
03:41 57.7 °F 45.6 °F 30.20 in Calm   -999.0 mph 64 % 0 in
03:56 57.0 °F 45.4 °F 30.19 in Calm   -999.0 mph 65 % 0 in
04:11 56.7 °F 45.1 °F 30.19 in Calm   -999.0 mph 65 % 0 in
04:27 55.8 °F 44.6 °F 30.19 in Calm   -999.0 mph 66 % 0 in
04:42 54.9 °F 44.5 °F 30.19 in Calm   -999.0 mph 68 % 0 in
04:57 54.3 °F 44.3 °F 30.19 in Calm   -999.0 mph 69 % 0 in
05:12 53.6 °F 43.7 °F 30.19 in Calm   -999.0 mph 69 % 0 in
05:27 53.8 °F 44.2 °F 30.20 in Calm   -999.0 mph 70 % 0 in
05:43 53.1 °F 45.7 °F 30.20 in Calm   -999.0 mph 76 % 0 in
05:58 52.7 °F 45.3 °F 30.20 in Calm   -999.0 mph 76 % 0 in
06:13 52.2 °F 44.2 °F 30.20 in Calm   -999.0 mph 74 % 0 in
06:28 51.8 °F 43.8 °F 30.20 in Calm   -999.0 mph 74 % 0 in
06:43 51.3 °F 43.3 °F 30.21 in Calm   -999.0 mph 74 % 0 in
06:59 50.9 °F 41.1 °F 30.21 in Calm   -999.0 mph 69 % 0 in
07:14 50.9 °F 40.7 °F 30.22 in Calm   -999.0 mph 68 % 0 in
07:29 51.1 °F 42.4 °F 30.22 in Calm   -999.0 mph 72 % 0 in
07:44 51.1 °F 43.5 °F 30.22 in Calm   -999.0 mph 75 % 0 in
07:59 51.6 °F 44.6 °F 30.22 in Calm   -999.0 mph 77 % 0 in
08:15 52.7 °F 46.0 °F 30.22 in Calm   -999.0 mph 78 % 0 in
08:30 54.7 °F 47.3 °F 30.22 in Calm   -999.0 mph 76 % 0 in
08:45 58.8 °F 47.5 °F 30.22 in Calm   -999.0 mph 66 % 0 in
09:00 60.8 °F 43.6 °F 30.22 in WNW 1.1 mph -999.0 mph 53 % 0 in
09:15 62.4 °F 35.8 °F 30.23 in NW 2.2 mph -999.0 mph 37 % 0 in
09:31 64.4 °F 34.7 °F 30.23 in SE 2.2 mph -999.0 mph 33 % 0 in
09:46 66.2 °F 33.0 °F 30.23 in WNW 5.3 mph -999.0 mph 29 % 0 in
10:01 66.9 °F 34.5 °F 30.23 in WNW 4.7 mph -999.0 mph 30 % 0 in
10:16 68.0 °F 34.6 °F 30.23 in West 3.7 mph -999.0 mph 29 % 0 in
10:32 68.5 °F 35.0 °F 30.23 in West 6.3 mph -999.0 mph 29 % 0 in
10:47 70.2 °F 32.7 °F 30.23 in NNW 9.4 mph -999.0 mph 25 % 0 in
11:03 71.6 °F 35.8 °F 30.23 in SSW 3.7 mph -999.0 mph 27 % 0 in
11:18 71.6 °F 37.7 °F 30.23 in WSW 3.2 mph -999.0 mph 29 % 0 in
11:33 72.7 °F 38.6 °F 30.24 in NNW 3.2 mph -999.0 mph 29 % 0 in
11:49 69.8 °F 39.4 °F 30.24 in WNW 3.2 mph -999.0 mph 33 % 0 in
12:04 74.5 °F 41.9 °F 30.23 in South 1.1 mph -999.0 mph 31 % 0 in
12:19 71.4 °F 40.8 °F 30.23 in NW 4.7 mph -999.0 mph 33 % 0 in
12:34 73.2 °F 43.2 °F 30.23 in WNW 3.2 mph -999.0 mph 34 % 0 in
12:49 71.8 °F 41.2 °F 30.23 in SSE 1.1 mph -999.0 mph 33 % 0 in
13:05 72.5 °F 43.3 °F 30.23 in NW 3.2 mph -999.0 mph 35 % 0 in
13:20 70.2 °F 44.7 °F 30.23 in South 4.2 mph -999.0 mph 40 % 0 in
13:35 69.3 °F 42.6 °F 30.23 in SE 3.7 mph -999.0 mph 38 % 0 in
13:50 69.1 °F 46.3 °F 30.23 in NW 2.2 mph -999.0 mph 44 % 0 in
14:05 67.8 °F 46.3 °F 30.22 in South 3.7 mph -999.0 mph 46 % 0 in
14:21 70.2 °F 46.0 °F 30.22 in South 1.1 mph -999.0 mph 42 % 0 in
14:36 70.0 °F 43.9 °F 30.21 in WSW 5.3 mph -999.0 mph 39 % 0 in
14:51 69.8 °F 45.7 °F 30.20 in ESE 3.2 mph -999.0 mph 42 % 0 in
15:07 71.1 °F 48.1 °F 30.19 in Calm   -999.0 mph 44 % 0 in
15:22 70.9 °F 49.7 °F 30.19 in SSE 4.2 mph -999.0 mph 47 % 0 in
15:37 72.1 °F 50.2 °F 30.19 in South 8.9 mph -999.0 mph 46 % 0 in
15:52 68.9 °F 47.8 °F 30.19 in SE 2.2 mph -999.0 mph 47 % 0 in
16:08 69.8 °F 46.3 °F 30.19 in East 1.7 mph -999.0 mph 43 % 0 in
16:23 70.0 °F 43.9 °F 30.19 in NNE 3.2 mph -999.0 mph 39 % 0 in
16:38 69.3 °F 44.6 °F 30.19 in ESE 3.7 mph -999.0 mph 41 % 0 in
16:54 68.9 °F 44.9 °F 30.20 in South 4.2 mph -999.0 mph 42 % 0 in
17:09 71.4 °F 45.2 °F 30.20 in South 3.7 mph -999.0 mph 39 % 0 in
17:24 70.5 °F 44.4 °F 30.20 in WSW 1.7 mph -999.0 mph 39 % 0 in
17:40 69.3 °F 43.9 °F 30.19 in South 1.1 mph -999.0 mph 40 % 0 in
17:55 67.1 °F 45.1 °F 30.18 in NNW 2.2 mph -999.0 mph 45 % 0 in
18:10 66.6 °F 46.8 °F 30.18 in WNW 1.7 mph -999.0 mph 49 % 0 in
18:25 64.9 °F 47.9 °F 30.18 in NNW 2.2 mph -999.0 mph 54 % 0 in
18:40 64.2 °F 47.7 °F 30.18 in NW 2.2 mph -999.0 mph 55 % 0 in
18:56 63.5 °F 46.6 °F 30.19 in Calm   -999.0 mph 54 % 0 in
19:11 63.0 °F 45.6 °F 30.19 in Calm   -999.0 mph 53 % 0 in
19:27 61.5 °F 46.1 °F 30.19 in West 2.7 mph -999.0 mph 57 % 0 in
19:42 60.8 °F 45.9 °F 30.19 in Calm   -999.0 mph 58 % 0 in
19:57 59.7 °F 45.3 °F 30.20 in Calm   -999.0 mph 59 % 0 in
20:27 58.1 °F 46.0 °F 30.21 in Calm   -999.0 mph 64 % 0 in
20:43 57.6 °F 45.5 °F 30.21 in Calm   -999.0 mph 64 % 0 in
20:58 57.2 °F 47.5 °F 30.22 in NNW 1.1 mph -999.0 mph 70 % 0 in
21:13 56.7 °F 48.1 °F 30.22 in Calm   -999.0 mph 73 % 0 in
21:28 56.5 °F 48.7 °F 30.22 in Calm   -999.0 mph 75 % 0 in
21:43 55.9 °F 48.1 °F 30.23 in Calm   -999.0 mph 75 % 0 in
21:59 55.9 °F 48.4 °F 30.23 in Calm   -999.0 mph 76 % 0 in
22:14 55.9 °F 48.1 °F 30.23 in Calm   -999.0 mph 75 % 0 in
22:29 56.5 °F 48.7 °F 30.23 in Calm   -999.0 mph 75 % 0 in
22:44 56.7 °F 48.9 °F 30.23 in Calm   -999.0 mph 75 % 0 in
23:00 56.5 °F 48.3 °F 30.23 in South 1.1 mph -999.0 mph 74 % 0 in
23:15 56.7 °F 49.9 °F 30.23 in Calm   -999.0 mph 78 % 0 in
23:30 55.6 °F 50.2 °F 30.23 in Calm   -999.0 mph 82 % 0 in
23:45 55.6 °F 49.5 °F 30.23 in Calm   -999.0 mph 80 % 0 in
Big Bear CA Weather
Compliments of Weather Underground - 1.5 mb